PWSweather.com
Personal Weather Stations
Station Observations
CW4438
Little Flock, AR 72756

Little Flock, AR 72756

Lat: 36.39, Lon: -94.14

Elevation: 1278

Station Type: Davis/Vantage Pro

Latest ConditionsUpdated 1:50:05 PM CDT Tuesday, Sep 2, 2014
Currently Today's Max Today's Min Today's Average
Temperature 71.2°F21.8°C 74.9°F23.8°C 64.2°F17.9°C 67.9°F19.9°C
Dew Point 66.8°F19.3°C 71.4°F21.9°C 63.1°F17.3°C 66.0°F18.9°C
Winds Calm Calm 3.0 mph ESE4.8 kmh ESE - 0.7 mph 1.1 kmh
Wind Gusts -- -- - -
Humidity 86% 97% 86% 94%
Pressure 29.95 in1014.2 mb 30.02 in1016.6 mb 29.81 in1009.5 mb -
Hour Temp Dew Point Humidity Winds Wind Gusts Pressure Precip Precip Rate Daily Precip Total
01:50 PM 71.2°F21.8°C 66.8°F19.3°C 86% Calm Calm -- 29.95 in1014.2 mb 0.00 in0.0 mm 0.00 in/hr0.0 mm/hr 0.41 in10.4 mm
01:20 PM 69.2°F20.7°C 67.1°F19.5°C 93% Calm Calm -- 29.97 in1014.9 mb 0.00 in0.0 mm 0.00 in/hr0.0 mm/hr 0.41 in10.4 mm
12:50 PM 66.5°F19.2°C 64.4°F18.0°C 93% Calm Calm -- 29.99 in1015.6 mb 0.00 in0.0 mm 0.00 in/hr0.0 mm/hr 0.41 in10.4 mm
12:20 PM 65.9°F18.8°C 64.1°F17.8°C 94% 3.0 mph SSE4.8 kmh SSE -- 29.97 in1014.9 mb 0.00 in0.0 mm 0.00 in/hr0.0 mm/hr 0.41 in10.4 mm
11:50 AM 65.5°F18.6°C 64.0°F17.8°C 95% Calm Calm -- 30.00 in1015.9 mb 0.00 in0.0 mm 0.00 in/hr0.0 mm/hr 0.41 in10.4 mm
11:20 AM 65.3°F18.5°C 63.8°F17.7°C 95% 1.0 mph S1.6 kmh S -- 29.95 in1014.2 mb 0.00 in0.0 mm 0.00 in/hr0.0 mm/hr 0.41 in10.4 mm
10:50 AM 65.3°F18.5°C 64.4°F18.0°C 97% 3.0 mph WSW4.8 kmh WSW -- 30.00 in1015.9 mb 0.00 in0.0 mm 0.00 in/hr0.0 mm/hr 0.41 in10.4 mm
10:20 AM 65.3°F18.5°C 64.1°F17.8°C 96% Calm Calm -- 30.02 in1016.6 mb 0.00 in0.0 mm 0.00 in/hr0.0 mm/hr 0.41 in10.4 mm
09:50 AM 65.2°F18.4°C 64.0°F17.8°C 96% 2.0 mph S3.2 kmh S -- 29.94 in1013.9 mb 0.00 in0.0 mm 0.00 in/hr0.0 mm/hr 0.41 in10.4 mm
09:20 AM 65.1°F18.4°C 63.9°F17.7°C 96% 3.0 mph SSE4.8 kmh SSE -- 29.98 in1015.2 mb 0.00 in0.0 mm 0.00 in/hr0.0 mm/hr 0.41 in10.4 mm
08:50 AM 65.5°F18.6°C 64.3°F17.9°C 96% Calm Calm -- 29.96 in1014.6 mb 0.00 in0.0 mm 0.00 in/hr0.0 mm/hr 0.41 in10.4 mm
08:00 AM 65.1°F18.4°C 64.2°F17.9°C 97% 2.0 mph S3.2 kmh S -- 30.00 in1015.9 mb 0.00 in0.0 mm 0.00 in/hr0.0 mm/hr 0.41 in10.4 mm
07:30 AM 64.8°F18.2°C 63.9°F17.7°C 97% 1.0 mph S1.6 kmh S -- 29.95 in1014.2 mb 0.00 in0.0 mm 0.00 in/hr0.0 mm/hr 0.41 in10.4 mm
07:00 AM 64.2°F17.9°C 63.3°F17.4°C 97% 3.0 mph ESE4.8 kmh ESE -- 29.93 in1013.5 mb 0.01 in0.3 mm 0.00 in/hr0.0 mm/hr 0.41 in10.4 mm
06:30 AM 64.3°F17.9°C 63.1°F17.3°C 96% Calm Calm -- 29.97 in1014.9 mb 0.01 in0.3 mm 0.02 in/hr0.5 mm/hr 0.41 in10.4 mm
06:00 AM 66.5°F19.2°C 65.0°F18.3°C 95% Calm Calm -- 29.94 in1013.9 mb 0.00 in0.0 mm 0.00 in/hr0.0 mm/hr 0.40 in10.2 mm
05:30 AM 67.1°F19.5°C 65.9°F18.8°C 96% Calm Calm -- 29.87 in1011.5 mb 0.00 in0.0 mm 0.00 in/hr0.0 mm/hr 0.40 in10.2 mm
05:00 AM 66.5°F19.2°C 65.3°F18.5°C 96% Calm Calm -- 29.88 in1011.9 mb 0.00 in0.0 mm 0.00 in/hr0.0 mm/hr 0.40 in10.2 mm
04:30 AM 66.4°F19.1°C 65.2°F18.4°C 96% Calm Calm -- 29.88 in1011.9 mb 0.40 in10.2 mm 0.00 in/hr0.0 mm/hr 0.40 in10.2 mm
04:00 AM 66.8°F19.3°C 65.3°F18.5°C 95% 1.0 mph NW1.6 kmh NW -- 29.91 in1012.9 mb 0.40 in10.2 mm 0.80 in/hr20.3 mm/hr 0.40 in10.2 mm
03:30 AM 71.0°F21.7°C 66.9°F19.4°C 87% Calm Calm -- 29.89 in1012.2 mb 0.00 in0.0 mm 0.00 in/hr0.0 mm/hr 0.00 in0.0 mm
03:00 AM 71.9°F22.2°C 69.1°F20.6°C 91% Calm Calm -- 29.83 in1010.2 mb 0.00 in0.0 mm 0.00 in/hr0.0 mm/hr 0.00 in0.0 mm
02:30 AM 73.0°F22.8°C 70.9°F21.6°C 93% Calm Calm -- 29.83 in1010.2 mb 0.00 in0.0 mm 0.00 in/hr0.0 mm/hr 0.00 in0.0 mm
01:40 AM 73.8°F23.2°C 70.7°F21.5°C 90% Calm Calm -- 29.81 in1009.5 mb 0.00 in0.0 mm 0.00 in/hr0.0 mm/hr 0.00 in0.0 mm
01:10 AM 74.0°F23.3°C 70.6°F21.4°C 89% Calm Calm -- 29.82 in1009.8 mb 0.00 in0.0 mm 0.00 in/hr0.0 mm/hr 0.00 in0.0 mm
12:40 AM 73.8°F23.2°C 71.0°F21.7°C 91% Calm Calm -- 29.86 in1011.2 mb 0.00 in0.0 mm 0.00 in/hr0.0 mm/hr 0.00 in0.0 mm
12:10 AM 74.9°F23.8°C 71.4°F21.9°C 89% Calm Calm -- 29.90 in1012.5 mb 0.00 in0.0 mm 0.00 in/hr0.0 mm/hr 0.00 in0.0 mm